Time;durP1;ratioP1;P1;durP2;ratioP2;P2;SDS_P1;SDS_P2;PMS_P1;PMS_P2;Temp;Humidity;BMP_temperature;BMP_pressure;BME280_temperature;BME280_humidity;BME280_pressure;Samples;Min_cycle;Max_cycle;Signal;HPM_P1;HPM_P2
2023/06/15 00:01:41;;;;;;;0.10;0.10;;;;;;;;;;4966717;28;20051;-77
2023/06/15 00:04:08;;;;;;;0.43;0.40;;;;;;;;;;4985865;28;20558;-77
2023/06/15 00:06:34;;;;;;;0.15;0.15;;;;;;;;;;4982711;28;20062;-76
2023/06/15 00:09:01;;;;;;;0.10;0.10;;;;;;;;;;4967623;28;20058;-76
2023/06/15 00:11:27;;;;;;;0.10;0.10;;;;;;;;;;4984883;28;20078;-76
2023/06/15 00:13:54;;;;;;;0.85;0.50;;;;;;;;;;4985186;28;20106;-76
2023/06/15 00:16:20;;;;;;;0.25;0.20;;;;;;;;;;4961450;28;20051;-74
2023/06/15 00:18:48;;;;;;;0.15;0.15;;;;;;;;;;4985698;28;20188;-75
2023/06/15 00:21:17;;;;;;;0.20;0.20;;;;;;;;;;4986169;28;20141;-76
2023/06/15 00:23:44;;;;;;;1.08;0.52;;;;;;;;;;4986394;28;20165;-75
2023/06/15 00:26:11;;;;;;;0.10;0.10;;;;;;;;;;4985003;28;20058;-76
2023/06/15 00:28:37;;;;;;;0.10;0.10;;;;;;;;;;4983318;28;20070;-76
2023/06/15 00:31:03;;;;;;;0.10;0.10;;;;;;;;;;4984794;28;20055;-77
2023/06/15 00:33:30;;;;;;;0.10;0.10;;;;;;;;;;4985843;28;20477;-77
2023/06/15 00:35:58;;;;;;;0.25;0.20;;;;;;;;;;4967221;28;20058;-77
2023/06/15 00:38:24;;;;;;;0.10;0.10;;;;;;;;;;4981329;28;20069;-76
2023/06/15 00:40:51;;;;;;;0.20;0.20;;;;;;;;;;4984663;28;20146;-76
2023/06/15 00:43:20;;;;;;;0.30;0.30;;;;;;;;;;4966991;28;20058;-76
2023/06/15 00:45:47;;;;;;;0.20;0.20;;;;;;;;;;4984458;28;20059;-76
2023/06/15 00:48:14;;;;;;;0.10;0.10;;;;;;;;;;4967623;28;20144;-76
2023/06/15 00:50:41;;;;;;;0.10;0.10;;;;;;;;;;4966325;28;20054;-76
2023/06/15 00:53:08;;;;;;;0.10;0.10;;;;;;;;;;4984905;28;20059;-76
2023/06/15 00:55:35;;;;;;;0.10;0.10;;;;;;;;;;4984997;28;20058;-76
2023/06/15 00:58:02;;;;;;;0.20;0.20;;;;;;;;;;4986005;28;20596;-76
2023/06/15 01:00:36;;;;;;;0.17;0.17;;;;;;;;;;4983714;28;20138;-76
2023/06/15 01:03:06;;;;;;;0.10;0.10;;;;;;;;;;4985770;28;20086;-75
2023/06/15 01:05:36;;;;;;;0.10;0.10;;;;;;;;;;4985711;28;20110;-76
2023/06/15 01:08:04;;;;;;;0.20;0.20;;;;;;;;;;4984884;28;20055;-76
2023/06/15 01:10:31;;;;;;;0.10;0.10;;;;;;;;;;4983080;28;20062;-76
2023/06/15 01:12:59;;;;;;;0.20;0.20;;;;;;;;;;4985163;28;20138;-76
2023/06/15 01:15:26;;;;;;;0.10;0.10;;;;;;;;;;4984239;28;20051;-76
2023/06/15 01:17:54;;;;;;;0.10;0.10;;;;;;;;;;4986451;28;20074;-76
2023/06/15 01:20:27;;;;;;;0.10;0.10;;;;;;;;;;4984372;28;20122;-75
2023/06/15 01:23:01;;;;;;;0.10;0.10;;;;;;;;;;4982805;28;20059;-75
2023/06/15 01:25:33;;;;;;;0.10;0.10;;;;;;;;;;4982542;28;20505;-75
2023/06/15 01:28:04;;;;;;;0.22;0.22;;;;;;;;;;4966893;28;20845;-75
2023/06/15 01:30:33;;;;;;;0.10;0.10;;;;;;;;;;4984590;28;20057;-76
2023/06/15 01:33:00;;;;;;;0.10;0.10;;;;;;;;;;4982817;28;20572;-75
2023/06/15 01:35:26;;;;;;;0.20;0.20;;;;;;;;;;4983831;28;20059;-75
2023/06/15 01:37:53;;;;;;;0.20;0.20;;;;;;;;;;4983741;28;20065;-76
2023/06/15 01:40:19;;;;;;;0.10;0.10;;;;;;;;;;4983522;28;20074;-76
2023/06/15 01:42:47;;;;;;;0.35;0.20;;;;;;;;;;4964442;28;20063;-76
2023/06/15 01:45:13;;;;;;;0.03;0.03;;;;;;;;;;4983862;28;20811;-75
2023/06/15 01:47:42;;;;;;;0.10;0.10;;;;;;;;;;4964921;28;20584;-76
2023/06/15 01:50:10;;;;;;;0.00;0.00;;;;;;;;;;4984170;28;20062;-76
2023/06/15 01:52:36;;;;;;;0.10;0.10;;;;;;;;;;4981672;28;20142;-76
2023/06/15 01:55:03;;;;;;;0.10;0.10;;;;;;;;;;4986248;28;20469;-76
2023/06/15 01:57:34;;;;;;;0.10;0.10;;;;;;;;;;4986611;28;20054;-75
2023/06/15 02:00:08;;;;;;;0.10;0.10;;;;;;;;;;4986998;28;20142;-74
2023/06/15 02:02:34;;;;;;;;;;;;;;;;;;4984199;28;20130;-76
2023/06/15 02:05:02;;;;;;;0.20;0.20;;;;;;;;;;4984943;28;47924;-75
2023/06/15 02:07:29;;;;;;;0.15;0.15;;;;;;;;;;4969157;28;20059;-74
2023/06/15 02:09:55;;;;;;;0.10;0.10;;;;;;;;;;4983180;28;20062;-74
2023/06/15 02:12:22;;;;;;;0.13;0.13;;;;;;;;;;4968798;28;20119;-76
2023/06/15 02:14:49;;;;;;;0.13;0.13;;;;;;;;;;4987973;28;20130;-77
2023/06/15 02:17:18;;;;;;;0.40;0.30;;;;;;;;;;4969200;28;20055;-76
2023/06/15 02:19:46;;;;;;;0.10;0.10;;;;;;;;;;4983429;28;20580;-76
2023/06/15 02:22:12;;;;;;;0.30;0.30;;;;;;;;;;4986934;28;20094;-77
2023/06/15 02:24:39;;;;;;;0.10;0.10;;;;;;;;;;4977461;28;20066;-77
2023/06/15 02:27:06;;;;;;;0.13;0.13;;;;;;;;;;4965802;28;20061;-77
2023/06/15 02:29:32;;;;;;;0.15;0.15;;;;;;;;;;4981052;28;20508;-77
2023/06/15 02:31:58;;;;;;;0.25;0.25;;;;;;;;;;4986590;28;20074;-76
2023/06/15 02:34:25;;;;;;;0.10;0.10;;;;;;;;;;4986642;28;20151;-76
2023/06/15 02:36:53;;;;;;;0.10;0.10;;;;;;;;;;4987414;28;20055;-77
2023/06/15 02:39:20;;;;;;;0.10;0.10;;;;;;;;;;4986472;28;20053;-76
2023/06/15 02:41:47;;;;;;;0.22;0.20;;;;;;;;;;4987424;28;20058;-77
2023/06/15 02:44:17;;;;;;;0.20;0.20;;;;;;;;;;4987680;28;20077;-76
2023/06/15 02:46:44;;;;;;;;;;;;;;;;;;4970174;28;20477;-76
2023/06/15 02:49:11;;;;;;;0.10;0.10;;;;;;;;;;4984760;28;43891;-76
2023/06/15 02:51:37;;;;;;;0.47;0.40;;;;;;;;;;4985347;28;20149;-77
2023/06/15 02:54:06;;;;;;;0.15;0.15;;;;;;;;;;4985711;28;20227;-76
2023/06/15 02:56:36;;;;;;;0.20;0.20;;;;;;;;;;4985728;28;20154;-76
2023/06/15 02:59:02;;;;;;;0.20;0.20;;;;;;;;;;4969471;28;20067;-77
2023/06/15 03:01:38;;;;;;;0.10;0.10;;;;;;;;;;4984344;28;20098;-77
2023/06/15 03:04:09;;;;;;;0.10;0.10;;;;;;;;;;4986516;28;20059;-78
2023/06/15 03:06:36;;;;;;;0.10;0.10;;;;;;;;;;4986562;28;20129;-77
2023/06/15 03:09:04;;;;;;;0.10;0.10;;;;;;;;;;4982044;28;20062;-78
2023/06/15 03:11:30;;;;;;;0.32;0.32;;;;;;;;;;4985722;28;20620;-76
2023/06/15 03:13:56;;;;;;;0.10;0.10;;;;;;;;;;4986575;28;20149;-78
2023/06/15 03:16:25;;;;;;;0.10;0.10;;;;;;;;;;4985586;28;20058;-76
2023/06/15 03:18:54;;;;;;;0.20;0.20;;;;;;;;;;4983938;28;20575;-78
2023/06/15 03:21:22;;;;;;;0.15;0.15;;;;;;;;;;4967917;28;20769;-77
2023/06/15 03:23:50;;;;;;;0.20;0.20;;;;;;;;;;4968189;28;20065;-76
2023/06/15 03:26:16;;;;;;;0.10;0.10;;;;;;;;;;4985790;28;20073;-77
2023/06/15 03:28:44;;;;;;;0.47;0.38;;;;;;;;;;4966661;28;20086;-76
2023/06/15 03:31:10;;;;;;;0.10;0.10;;;;;;;;;;4985239;28;20059;-76
2023/06/15 03:33:37;;;;;;;0.10;0.10;;;;;;;;;;4985732;28;20054;-75
2023/06/15 03:36:03;;;;;;;0.10;0.10;;;;;;;;;;4966613;28;20063;-76
2023/06/15 03:38:30;;;;;;;0.10;0.10;;;;;;;;;;4983196;28;20058;-75
2023/06/15 03:40:56;;;;;;;0.20;0.20;;;;;;;;;;4984613;28;20071;-75
2023/06/15 03:43:22;;;;;;;0.10;0.10;;;;;;;;;;4986207;28;20066;-75
2023/06/15 03:45:49;;;;;;;0.28;0.28;;;;;;;;;;4982646;28;20082;-78
2023/06/15 03:48:16;;;;;;;0.10;0.10;;;;;;;;;;4984386;28;20059;-78
2023/06/15 03:50:43;;;;;;;0.10;0.10;;;;;;;;;;4967769;28;20445;-77
2023/06/15 03:53:11;;;;;;;0.43;0.43;;;;;;;;;;4984981;28;20529;-76
2023/06/15 03:55:40;;;;;;;0.10;0.10;;;;;;;;;;4980104;28;20066;-75
2023/06/15 03:58:06;;;;;;;0.15;0.15;;;;;;;;;;4985692;28;20055;-76
2023/06/15 04:00:32;;;;;;;0.20;0.20;;;;;;;;;;4984986;28;20612;-76
2023/06/15 04:02:59;;;;;;;2.08;0.47;;;;;;;;;;4961690;28;20138;-76
2023/06/15 04:05:25;;;;;;;0.10;0.10;;;;;;;;;;4962745;28;20063;-76
2023/06/15 04:07:52;;;;;;;0.55;0.40;;;;;;;;;;4967003;28;20059;-76
2023/06/15 04:10:18;;;;;;;0.30;0.30;;;;;;;;;;4984134;28;20065;-75
2023/06/15 04:12:45;;;;;;;0.20;0.20;;;;;;;;;;4984021;28;20054;-76
2023/06/15 04:15:11;;;;;;;0.05;0.05;;;;;;;;;;4987450;28;20063;-77
2023/06/15 04:17:38;;;;;;;0.32;0.28;;;;;;;;;;4965897;28;20555;-77
2023/06/15 04:20:05;;;;;;;0.35;0.35;;;;;;;;;;4984535;28;20453;-77
2023/06/15 04:22:31;;;;;;;0.10;0.10;;;;;;;;;;4985499;28;20050;-77
2023/06/15 04:24:58;;;;;;;0.10;0.10;;;;;;;;;;4983231;28;20062;-78
2023/06/15 04:27:27;;;;;;;0.65;0.40;;;;;;;;;;4984559;28;20054;-77
2023/06/15 04:29:54;;;;;;;0.20;0.20;;;;;;;;;;4986480;28;20082;-76
2023/06/15 04:32:20;;;;;;;0.10;0.10;;;;;;;;;;4967685;28;20058;-77
2023/06/15 04:34:47;;;;;;;0.17;0.17;;;;;;;;;;4980800;28;20130;-78
2023/06/15 04:37:13;;;;;;;0.28;0.28;;;;;;;;;;4984613;28;20117;-76
2023/06/15 04:39:40;;;;;;;0.10;0.10;;;;;;;;;;4985933;28;20551;-75
2023/06/15 04:42:09;;;;;;;1.75;0.28;;;;;;;;;;4986379;28;20043;-76
2023/06/15 04:44:35;;;;;;;0.45;0.45;;;;;;;;;;4968356;28;20580;-76
2023/06/15 04:47:04;;;;;;;0.35;0.20;;;;;;;;;;4986282;28;20043;-76
2023/06/15 04:49:31;;;;;;;0.10;0.10;;;;;;;;;;4967096;28;20063;-76
2023/06/15 04:51:58;;;;;;;0.10;0.10;;;;;;;;;;4985748;28;21139;-77
2023/06/15 04:54:25;;;;;;;0.10;0.10;;;;;;;;;;4985724;28;20062;-76
2023/06/15 04:56:51;;;;;;;0.10;0.10;;;;;;;;;;4983604;28;20137;-75
2023/06/15 04:59:18;;;;;;;0.17;0.17;;;;;;;;;;4982768;28;20510;-75
2023/06/15 05:01:44;;;;;;;0.15;0.15;;;;;;;;;;4966325;28;20078;-76
2023/06/15 05:04:11;;;;;;;0.10;0.10;;;;;;;;;;4984713;28;20062;-78
2023/06/15 05:06:37;;;;;;;3.92;0.63;;;;;;;;;;4983579;28;20051;-76
2023/06/15 05:09:03;;;;;;;0.20;0.20;;;;;;;;;;4981902;28;20066;-77
2023/06/15 05:11:30;;;;;;;0.10;0.10;;;;;;;;;;4984034;28;20050;-76
2023/06/15 05:13:57;;;;;;;0.30;0.22;;;;;;;;;;4983801;28;20105;-76
2023/06/15 05:16:23;;;;;;;0.10;0.10;;;;;;;;;;4983043;28;20581;-78
2023/06/15 05:18:52;;;;;;;0.10;0.10;;;;;;;;;;4982711;28;20504;-77
2023/06/15 05:21:19;;;;;;;0.57;0.57;;;;;;;;;;4983514;28;20506;-78
2023/06/15 05:23:45;;;;;;;0.68;0.68;;;;;;;;;;4983515;28;20063;-77
2023/06/15 05:26:12;;;;;;;0.10;0.10;;;;;;;;;;4982583;28;20061;-78
2023/06/15 05:28:55;;;;;;;0.10;0.10;;;;;;;;;;4984902;28;20063;-77
2023/06/15 05:31:21;;;;;;;0.10;0.10;;;;;;;;;;4987350;28;20058;-78
2023/06/15 05:33:47;;;;;;;0.10;0.10;;;;;;;;;;4987476;28;20058;-77
2023/06/15 05:36:14;;;;;;;0.13;0.13;;;;;;;;;;4968838;28;20509;-79
2023/06/15 05:38:59;;;;;;;0.13;0.13;;;;;;;;;;4971673;28;20051;-79
2023/06/15 05:41:26;;;;;;;0.10;0.10;;;;;;;;;;4986377;28;20149;-78
2023/06/15 05:43:52;;;;;;;0.88;0.65;;;;;;;;;;4984834;28;20066;-78
2023/06/15 05:46:18;;;;;;;4.60;1.48;;;;;;;;;;4987360;28;20515;-78
2023/06/15 05:48:45;;;;;;;0.28;0.28;;;;;;;;;;4987930;28;20541;-78
2023/06/15 05:51:11;;;;;;;0.10;0.10;;;;;;;;;;4984744;28;20158;-78
2023/06/15 05:53:38;;;;;;;0.63;0.40;;;;;;;;;;4985969;28;20074;-77
2023/06/15 05:56:04;;;;;;;0.30;0.25;;;;;;;;;;4986815;28;20054;-77
2023/06/15 05:58:32;;;;;;;0.20;0.20;;;;;;;;;;4987173;28;20051;-76
2023/06/15 06:00:58;;;;;;;0.50;0.50;;;;;;;;;;4986631;28;20058;-77
2023/06/15 06:03:25;;;;;;;0.38;0.30;;;;;;;;;;4985227;28;20062;-78
2023/06/15 06:05:51;;;;;;;0.45;0.32;;;;;;;;;;4986431;28;20057;-77
2023/06/15 06:08:18;;;;;;;0.20;0.20;;;;;;;;;;4986942;28;21015;-77
2023/06/15 06:10:45;;;;;;;0.20;0.20;;;;;;;;;;4968682;28;20509;-77
2023/06/15 06:13:11;;;;;;;0.20;0.20;;;;;;;;;;4984824;28;20054;-77
2023/06/15 06:15:38;;;;;;;1.23;0.57;;;;;;;;;;4986721;28;21411;-77
2023/06/15 06:18:04;;;;;;;0.60;0.30;;;;;;;;;;4985956;28;20137;-77
2023/06/15 06:20:35;;;;;;;0.35;0.20;;;;;;;;;;4968471;28;20065;-77
2023/06/15 06:23:03;;;;;;;0.45;0.35;;;;;;;;;;4983644;28;20061;-77
2023/06/15 06:25:30;;;;;;;0.60;0.50;;;;;;;;;;4985560;28;20691;-76
2023/06/15 06:27:56;;;;;;;0.20;0.20;;;;;;;;;;4986375;28;20059;-78
2023/06/15 06:30:22;;;;;;;0.50;0.40;;;;;;;;;;4984937;28;20135;-77
2023/06/15 06:32:49;;;;;;;0.65;0.40;;;;;;;;;;4984530;28;20055;-77
2023/06/15 06:35:15;;;;;;;1.30;0.63;;;;;;;;;;4982783;28;20059;-77
2023/06/15 06:37:42;;;;;;;2.38;1.35;;;;;;;;;;4980581;28;20105;-78
2023/06/15 06:40:09;;;;;;;0.55;0.35;;;;;;;;;;4981856;28;20974;-77
2023/06/15 06:42:35;;;;;;;0.63;0.60;;;;;;;;;;4985953;28;20058;-77
2023/06/15 06:45:02;;;;;;;0.45;0.30;;;;;;;;;;4982185;28;20996;-78
2023/06/15 06:47:30;;;;;;;0.50;0.50;;;;;;;;;;4982670;28;20177;-77
2023/06/15 06:49:59;;;;;;;0.60;0.60;;;;;;;;;;4971332;28;20055;-77
2023/06/15 06:52:25;;;;;;;0.20;0.20;;;;;;;;;;4987743;28;20047;-77
2023/06/15 06:54:52;;;;;;;1.45;0.65;;;;;;;;;;4990339;28;20061;-78
2023/06/15 06:57:18;;;;;;;0.30;0.30;;;;;;;;;;4989485;28;20790;-78
2023/06/15 06:59:44;;;;;;;0.57;0.40;;;;;;;;;;4989310;28;20118;-78
2023/06/15 07:02:12;;;;;;;1.65;1.38;;;;;;;;;;4983871;28;20065;-77
2023/06/15 07:04:38;;;;;;;0.30;0.30;;;;;;;;;;4987295;28;20529;-77
2023/06/15 07:07:05;;;;;;;0.90;0.40;;;;;;;;;;4970268;28;20157;-77
2023/06/15 07:09:32;;;;;;;0.40;0.40;;;;;;;;;;4988561;28;20098;-77
2023/06/15 07:11:58;;;;;;;2.67;0.65;;;;;;;;;;4988150;28;20051;-77
2023/06/15 07:14:25;;;;;;;0.65;0.50;;;;;;;;;;4985450;28;20147;-77
2023/06/15 07:16:51;;;;;;;0.57;0.40;;;;;;;;;;4985603;28;20443;-77
2023/06/15 07:19:17;;;;;;;0.30;0.30;;;;;;;;;;4983879;28;20054;-76
2023/06/15 07:21:44;;;;;;;0.28;0.28;;;;;;;;;;4981998;28;20066;-77
2023/06/15 07:24:10;;;;;;;0.52;0.32;;;;;;;;;;4985343;28;20051;-78
2023/06/15 07:26:37;;;;;;;0.30;0.30;;;;;;;;;;4985630;28;20059;-77
2023/06/15 07:29:03;;;;;;;0.35;0.32;;;;;;;;;;4985643;28;20856;-78
2023/06/15 07:31:30;;;;;;;0.25;0.25;;;;;;;;;;4985026;28;20055;-77
2023/06/15 07:33:56;;;;;;;0.30;0.30;;;;;;;;;;4986159;28;20063;-78
2023/06/15 07:36:23;;;;;;;0.70;0.40;;;;;;;;;;4985992;28;20059;-78
2023/06/15 07:38:49;;;;;;;0.38;0.38;;;;;;;;;;4985978;28;20051;-77
2023/06/15 07:41:15;;;;;;;0.95;0.77;;;;;;;;;;4987199;28;20556;-77
2023/06/15 07:43:42;;;;;;;0.30;0.30;;;;;;;;;;4986982;28;20518;-78
2023/06/15 07:46:08;;;;;;;0.30;0.30;;;;;;;;;;4987170;28;20085;-78
2023/06/15 07:48:35;;;;;;;0.35;0.30;;;;;;;;;;4973621;28;20073;-77
2023/06/15 07:51:01;;;;;;;0.43;0.40;;;;;;;;;;4969389;28;20059;-78
2023/06/15 07:53:28;;;;;;;0.20;0.20;;;;;;;;;;4988716;28;20050;-77
2023/06/15 07:55:54;;;;;;;0.20;0.20;;;;;;;;;;4990689;28;20119;-78
2023/06/15 07:58:20;;;;;;;0.32;0.30;;;;;;;;;;4990761;28;21199;-77
2023/06/15 08:00:47;;;;;;;0.32;0.32;;;;;;;;;;4990228;28;20058;-78
2023/06/15 08:03:13;;;;;;;0.63;0.40;;;;;;;;;;4989668;28;20058;-78
2023/06/15 08:05:40;;;;;;;1.13;0.63;;;;;;;;;;4989176;28;20066;-78
2023/06/15 08:08:06;;;;;;;0.57;0.45;;;;;;;;;;4988002;28;20054;-77
2023/06/15 08:10:33;;;;;;;0.52;0.40;;;;;;;;;;4990003;28;20184;-77
2023/06/15 08:13:02;;;;;;;0.52;0.40;;;;;;;;;;4988554;28;21116;-77
2023/06/15 08:15:31;;;;;;;0.60;0.43;;;;;;;;;;4967613;28;20126;-78
2023/06/15 08:17:57;;;;;;;0.60;0.40;;;;;;;;;;4983693;28;20085;-78
2023/06/15 08:20:24;;;;;;;0.45;0.45;;;;;;;;;;4983068;28;20448;-77
2023/06/15 08:22:50;;;;;;;1.00;0.43;;;;;;;;;;4984629;28;20093;-77
2023/06/15 08:25:17;;;;;;;0.43;0.40;;;;;;;;;;4972858;28;20161;-77
2023/06/15 08:27:43;;;;;;;0.45;0.40;;;;;;;;;;4984302;28;20061;-77
2023/06/15 08:30:10;;;;;;;1.98;0.43;;;;;;;;;;4982298;28;20058;-77
2023/06/15 08:32:36;;;;;;;0.43;0.38;;;;;;;;;;4982253;28;20074;-77
2023/06/15 08:35:03;;;;;;;1.88;0.57;;;;;;;;;;4984473;28;20608;-77
2023/06/15 08:37:30;;;;;;;0.95;0.50;;;;;;;;;;4966057;28;20055;-77
2023/06/15 08:39:56;;;;;;;0.38;0.30;;;;;;;;;;4982539;28;20062;-77
2023/06/15 08:42:25;;;;;;;0.95;0.50;;;;;;;;;;4986932;28;20066;-78
2023/06/15 08:44:52;;;;;;;0.63;0.50;;;;;;;;;;4971618;28;20053;-77
2023/06/15 08:47:19;;;;;;;0.30;0.30;;;;;;;;;;4979389;28;20311;-77
2023/06/15 08:49:46;;;;;;;0.30;0.30;;;;;;;;;;4979996;28;20055;-77
2023/06/15 08:52:13;;;;;;;0.85;0.85;;;;;;;;;;4959654;28;20875;-77
2023/06/15 08:54:42;;;;;;;0.63;0.47;;;;;;;;;;4978671;28;20117;-77
2023/06/15 08:57:08;;;;;;;0.30;0.30;;;;;;;;;;4973643;28;20158;-77
2023/06/15 08:59:36;;;;;;;2.38;0.95;;;;;;;;;;4976789;28;20056;-77
2023/06/15 09:02:04;;;;;;;1.42;0.73;;;;;;;;;;4974058;28;20059;-76
2023/06/15 09:04:31;;;;;;;0.50;0.50;;;;;;;;;;4959697;28;20062;-77
2023/06/15 09:06:58;;;;;;;0.75;0.63;;;;;;;;;;4963765;28;20065;-77
2023/06/15 09:09:25;;;;;;;0.50;0.50;;;;;;;;;;4981240;28;20967;-78
2023/06/15 09:11:52;;;;;;;0.30;0.30;;;;;;;;;;4981301;28;20063;-77
2023/06/15 09:14:19;;;;;;;0.32;0.32;;;;;;;;;;4986632;28;20190;-77
2023/06/15 09:16:48;;;;;;;0.20;0.20;;;;;;;;;;4983906;28;20146;-78
2023/06/15 09:19:16;;;;;;;5.10;0.67;;;;;;;;;;4983155;28;20564;-78
2023/06/15 09:21:48;;;;;;;0.43;0.43;;;;;;;;;;4984029;28;20110;-78
2023/06/15 09:24:16;;;;;;;1.65;0.80;;;;;;;;;;4982155;28;20055;-78
2023/06/15 09:26:44;;;;;;;1.10;1.00;;;;;;;;;;4981555;28;20134;-78
2023/06/15 09:29:13;;;;;;;0.93;0.65;;;;;;;;;;4984060;28;20560;-78
2023/06/15 09:31:41;;;;;;;;;;;;;;;;;;4979986;28;20075;-78
2023/06/15 09:34:08;;;;;;;0.50;0.50;;;;;;;;;;4982693;28;45233;-77
2023/06/15 09:36:46;;;;;;;0.73;0.60;;;;;;;;;;4982892;28;20101;-77
2023/06/15 09:39:13;;;;;;;0.73;0.50;;;;;;;;;;4981435;28;20155;-78
2023/06/15 09:41:50;;;;;;;0.38;0.38;;;;;;;;;;4982523;28;20047;-77
2023/06/15 09:44:18;;;;;;;0.57;0.55;;;;;;;;;;4982519;28;20050;-77
2023/06/15 09:46:47;;;;;;;0.40;0.40;;;;;;;;;;4981584;28;20066;-77
2023/06/15 09:49:21;;;;;;;0.40;0.40;;;;;;;;;;4982349;28;20128;-76
2023/06/15 09:51:48;;;;;;;1.15;0.77;;;;;;;;;;4983023;28;20054;-77
2023/06/15 09:54:17;;;;;;;0.63;0.43;;;;;;;;;;4986066;28;20161;-77
2023/06/15 09:56:43;;;;;;;2.10;0.50;;;;;;;;;;4980985;28;20137;-77
2023/06/15 09:59:10;;;;;;;0.82;0.52;;;;;;;;;;4981757;28;20060;-77
2023/06/15 10:01:37;;;;;;;0.30;0.30;;;;;;;;;;4973796;28;20056;-77
2023/06/15 10:04:03;;;;;;;1.08;0.73;;;;;;;;;;4972002;28;20142;-76
2023/06/15 10:06:33;;;;;;;0.90;0.60;;;;;;;;;;4975177;28;20059;-77
2023/06/15 10:09:00;;;;;;;0.38;0.38;;;;;;;;;;4982994;28;20110;-76
2023/06/15 10:11:27;;;;;;;0.63;0.45;;;;;;;;;;4965983;28;20058;-77
2023/06/15 10:14:00;;;;;;;0.40;0.40;;;;;;;;;;4981864;28;20502;-76
2023/06/15 10:16:27;;;;;;;0.82;0.65;;;;;;;;;;4984744;28;20133;-76
2023/06/15 10:18:59;;;;;;;0.43;0.43;;;;;;;;;;4985374;28;20133;-76
2023/06/15 10:21:28;;;;;;;0.50;0.50;;;;;;;;;;4984941;28;20145;-76
2023/06/15 10:26:31;;;;;;;0.73;0.50;;;;;;;;;;4955754;28;20059;-76
2023/06/15 10:29:01;;;;;;;0.57;0.57;;;;;;;;;;4960631;28;20058;-77
2023/06/15 10:31:31;;;;;;;0.38;0.38;;;;;;;;;;4964159;28;20055;-77
2023/06/15 10:34:18;;;;;;;0.98;0.60;;;;;;;;;;4964928;28;20266;-77
2023/06/15 10:36:48;;;;;;;0.40;0.40;;;;;;;;;;4944503;28;20059;-77
2023/06/15 10:39:33;;;;;;;1.20;0.75;;;;;;;;;;4965106;28;20083;-77
2023/06/15 10:42:05;;;;;;;0.50;0.47;;;;;;;;;;4962944;28;20138;-77
2023/06/15 10:44:32;;;;;;;1.05;0.68;;;;;;;;;;4952038;28;20525;-76
2023/06/15 10:47:04;;;;;;;1.98;1.33;;;;;;;;;;4950125;28;20356;-76
2023/06/15 10:49:31;;;;;;;0.30;0.30;;;;;;;;;;4955860;28;20083;-76
2023/06/15 10:51:57;;;;;;;0.63;0.50;;;;;;;;;;4962127;28;20051;-77
2023/06/15 10:54:27;;;;;;;0.47;0.30;;;;;;;;;;4966890;28;20059;-76
2023/06/15 10:56:55;;;;;;;0.30;0.30;;;;;;;;;;4966780;28;20556;-76
2023/06/15 10:59:41;;;;;;;0.40;0.40;;;;;;;;;;4965374;28;20055;-76
2023/06/15 11:02:26;;;;;;;0.40;0.40;;;;;;;;;;4963547;28;20060;-76
2023/06/15 11:04:53;;;;;;;0.40;0.40;;;;;;;;;;4966413;28;20054;-76
2023/06/15 11:07:38;;;;;;;0.47;0.47;;;;;;;;;;4967052;28;20550;-77
2023/06/15 11:10:22;;;;;;;0.40;0.40;;;;;;;;;;4965272;28;20063;-76
2023/06/15 11:12:51;;;;;;;2.78;1.38;;;;;;;;;;4962489;28;20057;-76
2023/06/15 11:15:17;;;;;;;0.40;0.40;;;;;;;;;;4965159;28;20105;-76
2023/06/15 11:17:54;;;;;;;1.25;1.15;;;;;;;;;;4967148;28;20059;-77
2023/06/15 11:20:39;;;;;;;0.30;0.30;;;;;;;;;;4968027;28;20308;-77
2023/06/15 11:23:10;;;;;;;0.30;0.30;;;;;;;;;;4962053;28;21105;-77
2023/06/15 11:25:42;;;;;;;0.40;0.40;;;;;;;;;;4965770;28;20541;-76
2023/06/15 11:28:09;;;;;;;0.45;0.45;;;;;;;;;;4966514;28;20573;-76
2023/06/15 11:30:45;;;;;;;0.47;0.47;;;;;;;;;;4961796;28;20062;-76
2023/06/15 11:33:12;;;;;;;0.40;0.40;;;;;;;;;;4963715;28;20062;-76
2023/06/15 11:35:38;;;;;;;0.70;0.50;;;;;;;;;;4964579;28;20090;-77
2023/06/15 11:38:07;;;;;;;1.10;0.60;;;;;;;;;;4965458;28;20059;-76
2023/06/15 11:40:34;;;;;;;0.60;0.45;;;;;;;;;;4965147;28;20521;-77
2023/06/15 11:43:02;;;;;;;0.80;0.50;;;;;;;;;;4966374;28;20059;-76
2023/06/15 11:45:28;;;;;;;0.45;0.45;;;;;;;;;;4959245;28;20055;-77
2023/06/15 11:47:55;;;;;;;0.60;0.50;;;;;;;;;;4965728;28;20943;-77
2023/06/15 11:50:23;;;;;;;0.38;0.38;;;;;;;;;;4966031;28;20601;-76
2023/06/15 11:52:50;;;;;;;0.75;0.68;;;;;;;;;;4948596;28;20059;-77
2023/06/15 11:55:16;;;;;;;0.55;0.47;;;;;;;;;;4962043;28;20051;-76
2023/06/15 11:57:43;;;;;;;1.08;0.57;;;;;;;;;;4965554;28;20119;-76
2023/06/15 12:00:10;;;;;;;0.52;0.40;;;;;;;;;;4964747;28;20473;-76
2023/06/15 12:02:45;;;;;;;0.40;0.40;;;;;;;;;;4966059;28;20134;-76
2023/06/15 12:05:13;;;;;;;0.55;0.50;;;;;;;;;;4961917;28;20081;-77
2023/06/15 12:07:41;;;;;;;0.93;0.73;;;;;;;;;;4965343;28;20505;-76
2023/06/15 12:10:11;;;;;;;0.93;0.60;;;;;;;;;;4945880;28;20077;-76
2023/06/15 12:12:37;;;;;;;0.40;0.40;;;;;;;;;;4964183;28;20067;-76
2023/06/15 12:15:05;;;;;;;0.40;0.40;;;;;;;;;;4963857;28;20133;-77
2023/06/15 12:17:38;;;;;;;0.40;0.40;;;;;;;;;;4964976;28;20118;-77
2023/06/15 12:20:10;;;;;;;0.60;0.55;;;;;;;;;;4965160;28;20135;-75
2023/06/15 12:22:47;;;;;;;0.75;0.75;;;;;;;;;;4937544;28;20861;-75
2023/06/15 12:25:14;;;;;;;0.40;0.40;;;;;;;;;;4952807;28;20067;-77
2023/06/15 12:27:49;;;;;;;0.35;0.35;;;;;;;;;;4957949;28;20063;-77
2023/06/15 12:30:18;;;;;;;1.75;1.65;;;;;;;;;;4961460;28;20055;-77
2023/06/15 12:32:46;;;;;;;0.65;0.50;;;;;;;;;;4961669;28;20056;-77
2023/06/15 12:35:32;;;;;;;0.45;0.43;;;;;;;;;;4956778;28;20055;-77
2023/06/15 12:37:59;;;;;;;0.45;0.45;;;;;;;;;;4955955;28;20155;-77
2023/06/15 12:40:25;;;;;;;0.65;0.65;;;;;;;;;;4967751;28;20442;-77
2023/06/15 12:42:56;;;;;;;0.82;0.50;;;;;;;;;;4956102;28;20122;-77
2023/06/15 12:45:22;;;;;;;0.50;0.50;;;;;;;;;;4958010;28;20585;-77
2023/06/15 12:47:49;;;;;;;0.98;0.77;;;;;;;;;;4958053;28;20051;-77
2023/06/15 12:50:16;;;;;;;0.45;0.40;;;;;;;;;;4964930;28;20055;-77
2023/06/15 12:52:43;;;;;;;0.57;0.47;;;;;;;;;;4962888;28;20062;-77
2023/06/15 12:55:09;;;;;;;0.50;0.50;;;;;;;;;;4963740;28;20055;-74
2023/06/15 12:57:36;;;;;;;0.95;0.60;;;;;;;;;;4964366;28;20059;-77
2023/06/15 13:00:03;;;;;;;0.40;0.40;;;;;;;;;;4956538;28;20102;-77
2023/06/15 13:02:32;;;;;;;0.40;0.40;;;;;;;;;;4956261;28;20138;-77
2023/06/15 13:05:03;;;;;;;0.68;0.50;;;;;;;;;;4962425;28;20138;-75
2023/06/15 13:07:34;;;;;;;0.40;0.40;;;;;;;;;;4944811;28;20075;-75
2023/06/15 13:10:01;;;;;;;0.70;0.60;;;;;;;;;;4954631;28;20560;-77
2023/06/15 13:12:29;;;;;;;0.50;0.50;;;;;;;;;;4961195;28;20051;-77
2023/06/15 13:14:57;;;;;;;0.82;0.50;;;;;;;;;;4963172;28;20565;-74
2023/06/15 13:17:23;;;;;;;0.40;0.40;;;;;;;;;;4962002;28;20162;-76
2023/06/15 13:19:49;;;;;;;0.60;0.40;;;;;;;;;;4960211;28;20082;-77
2023/06/15 13:22:16;;;;;;;0.40;0.40;;;;;;;;;;4963835;28;20106;-77
2023/06/15 13:24:42;;;;;;;1.05;0.68;;;;;;;;;;4964783;28;20055;-77
2023/06/15 13:27:09;;;;;;;1.13;0.52;;;;;;;;;;4958018;28;20881;-77
2023/06/15 13:29:36;;;;;;;1.25;0.70;;;;;;;;;;4958123;28;20158;-77
2023/06/15 13:32:03;;;;;;;0.65;0.40;;;;;;;;;;4947276;28;20498;-77
2023/06/15 13:34:29;;;;;;;0.95;0.88;;;;;;;;;;4960189;28;20087;-77
2023/06/15 13:36:56;;;;;;;0.40;0.40;;;;;;;;;;4961262;28;20157;-77
2023/06/15 13:39:22;;;;;;;1.02;0.60;;;;;;;;;;4959365;28;20641;-77
2023/06/15 13:41:48;;;;;;;0.95;0.85;;;;;;;;;;4975346;28;20504;-75
2023/06/15 13:44:15;;;;;;;0.85;0.65;;;;;;;;;;4966756;28;20066;-77
2023/06/15 13:46:42;;;;;;;0.40;0.40;;;;;;;;;;4958713;28;20558;-77
2023/06/15 13:49:09;;;;;;;0.60;0.60;;;;;;;;;;4963251;28;20166;-77
2023/06/15 13:51:36;;;;;;;0.68;0.50;;;;;;;;;;4967317;28;20066;-77
2023/06/15 13:54:03;;;;;;;0.40;0.40;;;;;;;;;;4966246;28;20048;-74
2023/06/15 13:56:29;;;;;;;0.45;0.40;;;;;;;;;;4965150;28;20087;-76
2023/06/15 13:58:57;;;;;;;0.32;0.32;;;;;;;;;;4948377;28;20102;-76
2023/06/15 14:01:23;;;;;;;0.52;0.52;;;;;;;;;;4964958;28;20058;-77
2023/06/15 14:03:50;;;;;;;1.23;0.68;;;;;;;;;;4964307;28;20516;-76
2023/06/15 14:06:17;;;;;;;0.52;0.50;;;;;;;;;;4966518;28;20138;-77
2023/06/15 14:08:44;;;;;;;0.40;0.40;;;;;;;;;;4955961;28;20130;-77
2023/06/15 14:11:11;;;;;;;0.50;0.40;;;;;;;;;;4955591;28;20051;-76
2023/06/15 14:13:37;;;;;;;0.55;0.50;;;;;;;;;;4963646;28;20051;-76
2023/06/15 14:16:04;;;;;;;0.40;0.40;;;;;;;;;;4967510;28;20059;-77
2023/06/15 14:18:31;;;;;;;1.13;0.57;;;;;;;;;;4966996;28;20139;-76
2023/06/15 14:20:57;;;;;;;0.93;0.70;;;;;;;;;;4965890;28;20894;-76
2023/06/15 14:23:23;;;;;;;0.45;0.40;;;;;;;;;;4967629;28;20113;-76
2023/06/15 14:25:50;;;;;;;0.30;0.30;;;;;;;;;;4961300;28;20103;-76
2023/06/15 14:28:16;;;;;;;0.50;0.50;;;;;;;;;;4964841;28;20063;-76
2023/06/15 14:30:42;;;;;;;0.55;0.47;;;;;;;;;;4948935;28;20047;-76
2023/06/15 14:33:09;;;;;;;0.57;0.50;;;;;;;;;;4966553;28;20143;-75
2023/06/15 14:35:35;;;;;;;0.40;0.40;;;;;;;;;;4967380;28;20055;-77
2023/06/15 14:38:02;;;;;;;0.65;0.55;;;;;;;;;;4967334;28;20067;-75
2023/06/15 14:40:28;;;;;;;0.35;0.35;;;;;;;;;;4964509;28;20548;-76
2023/06/15 14:42:54;;;;;;;0.40;0.40;;;;;;;;;;4966876;28;20063;-75
2023/06/15 14:45:22;;;;;;;0.52;0.30;;;;;;;;;;4967684;28;20868;-75
2023/06/15 14:47:51;;;;;;;0.40;0.40;;;;;;;;;;4965189;28;20058;-77
2023/06/15 14:50:17;;;;;;;1.08;0.45;;;;;;;;;;4964927;28;20424;-75